Time;durP1;ratioP1;P1;durP2;ratioP2;P2;SDS_P1;SDS_P2;PMS_P1;PMS_P2;Temp;Humidity;BMP_temperature;BMP_pressure;BME280_temperature;BME280_humidity;BME280_pressure;Samples;Min_cycle;Max_cycle;Signal;HPM_P1;HPM_P2
2022/06/30 00:01:14;;;;;;;5.53;5.03;;;24.10;74.50;;;;;;947274;148;27842;-72
2022/06/30 00:03:41;;;;;;;4.90;4.50;;;24.10;74.70;;;;;;944552;148;28057;-73
2022/06/30 00:06:07;;;;;;;4.45;4.05;;;24.00;75.60;;;;;;943875;148;27308;-74
2022/06/30 00:08:34;;;;;;;4.35;3.95;;;24.00;75.00;;;;;;944392;148;27325;-73
2022/06/30 00:11:06;;;;;;;4.80;4.40;;;24.00;74.80;;;;;;943437;148;27364;-73
2022/06/30 00:13:27;;;;;;;4.67;4.33;;;24.00;75.00;;;;;;943743;148;27389;-73
2022/06/30 00:15:54;;;;;;;4.47;4.08;;;24.00;75.20;;;;;;942955;148;27388;-73
2022/06/30 00:18:20;;;;;;;4.90;4.50;;;23.90;75.30;;;;;;944307;148;27377;-73
2022/06/30 00:20:47;;;;;;;5.30;4.47;;;23.90;75.60;;;;;;945283;148;27356;-73
2022/06/30 00:23:14;;;;;;;4.92;4.50;;;23.90;75.70;;;;;;947055;148;27315;-73
2022/06/30 00:25:40;;;;;;;4.95;3.98;;;23.80;75.80;;;;;;943757;148;27325;-73
2022/06/30 00:28:07;;;;;;;4.75;4.33;;;23.80;76.00;;;;;;944851;148;27441;-73
2022/06/30 00:30:33;;;;;;;6.17;4.12;;;23.80;76.30;;;;;;945297;148;27379;-74
2022/06/30 00:33:00;;;;;;;5.53;4.42;;;23.80;76.70;;;;;;944225;150;27625;-73
2022/06/30 00:35:27;;;;;;;4.80;4.42;;;23.80;76.90;;;;;;943684;148;27360;-73
2022/06/30 00:37:53;;;;;;;4.85;4.45;;;23.80;77.10;;;;;;944067;147;27362;-73
2022/06/30 00:42:49;;;;;;;5.15;4.60;;;23.70;77.30;;;;;;973676;145;38240;-73
2022/06/30 00:45:15;;;;;;;5.12;4.72;;;23.70;77.90;;;;;;959678;148;27272;-72
2022/06/30 00:47:42;;;;;;;4.90;4.45;;;23.70;78.10;;;;;;959146;148;27310;-72
2022/06/30 00:50:09;;;;;;;5.65;5.15;;;23.70;78.10;;;;;;958304;148;27288;-72
2022/06/30 00:52:35;;;;;;;5.55;4.55;;;23.70;78.20;;;;;;942880;148;27403;-72
2022/06/30 00:55:02;;;;;;;5.55;4.97;;;23.60;78.40;;;;;;941410;151;27457;-72
2022/06/30 00:57:28;;;;;;;4.95;4.55;;;23.60;78.60;;;;;;943374;151;27985;-72
2022/06/30 00:59:55;;;;;;;4.25;3.90;;;23.60;79.40;;;;;;942986;151;27214;-72
2022/06/30 01:02:22;;;;;;;4.70;4.30;;;23.60;78.80;;;;;;942778;151;27313;-72
2022/06/30 01:04:48;;;;;;;4.45;4.05;;;23.50;79.10;;;;;;943199;151;27464;-72
2022/06/30 01:07:15;;;;;;;4.70;4.37;;;23.50;79.40;;;;;;942633;150;27445;-72
2022/06/30 01:12:44;;;;;;;4.58;4.22;;;23.40;80.10;;;;;;943348;151;27268;-72
2022/06/30 01:15:13;;;;;;;5.67;5.20;;;23.40;80.30;;;;;;941277;151;27356;-72
2022/06/30 01:17:40;;;;;;;4.83;4.47;;;23.40;80.30;;;;;;942510;151;27369;-72
2022/06/30 01:20:06;;;;;;;4.58;4.25;;;23.30;80.50;;;;;;943468;149;27326;-72
2022/06/30 01:22:33;;;;;;;5.35;4.50;;;23.30;80.80;;;;;;942282;149;27331;-72
2022/06/30 01:24:59;;;;;;;5.97;4.42;;;23.20;81.10;;;;;;942327;151;27389;-72
2022/06/30 01:27:26;;;;;;;5.03;4.62;;;23.20;81.40;;;;;;943241;151;27214;-71
2022/06/30 01:29:53;;;;;;;5.10;4.70;;;23.20;81.70;;;;;;942189;151;27253;-72
2022/06/30 01:32:19;;;;;;;5.37;4.97;;;23.10;81.90;;;;;;942810;151;27471;-72
2022/06/30 01:34:46;;;;;;;4.85;4.35;;;23.10;82.20;;;;;;942611;151;27386;-72
2022/06/30 01:37:13;;;;;;;5.17;4.78;;;23.10;82.30;;;;;;941015;151;27309;-72
2022/06/30 01:39:39;;;;;;;4.72;4.33;;;23.00;82.60;;;;;;943388;149;27838;-72
2022/06/30 01:42:05;;;;;;;5.40;5.00;;;22.90;82.60;;;;;;941753;151;27445;-72
2022/06/30 01:44:32;;;;;;;5.22;4.83;;;22.90;83.00;;;;;;936009;152;27501;-73
2022/06/30 01:46:59;;;;;;;4.85;4.55;;;22.80;83.60;;;;;;936130;151;27339;-73
2022/06/30 01:49:25;;;;;;;4.67;4.33;;;22.80;84.50;;;;;;935918;149;27389;-72
2022/06/30 01:51:52;;;;;;;5.08;4.67;;;22.70;84.10;;;;;;935244;150;27366;-72
2022/06/30 01:54:18;;;;;;;5.85;4.75;;;22.70;84.50;;;;;;937285;151;27378;-72
2022/06/30 01:56:45;;;;;;;5.35;4.85;;;22.60;84.90;;;;;;936039;152;27438;-72
2022/06/30 01:59:12;;;;;;;5.40;5.00;;;22.60;85.40;;;;;;937212;152;27668;-72
2022/06/30 02:01:38;;;;;;;6.15;4.80;;;22.50;86.00;;;;;;936973;151;27330;-72
2022/06/30 02:06:50;;;;;;;5.20;4.80;;;22.40;86.60;;;;;;936429;152;27356;-70
2022/06/30 02:09:16;;;;;;;5.35;4.17;;;22.40;86.90;;;;;;935915;150;27722;-71
2022/06/30 02:11:43;;;;;;;4.70;4.30;;;22.30;87.10;;;;;;936019;151;27460;-70
2022/06/30 02:14:09;;;;;;;4.70;4.30;;;22.30;87.70;;;;;;936443;152;27356;-70
2022/06/30 02:16:36;;;;;;;5.47;5.00;;;22.20;87.80;;;;;;935912;152;27767;-70
2022/06/30 02:19:03;;;;;;;5.22;4.83;;;22.20;88.30;;;;;;936377;152;27735;-71
2022/06/30 02:21:29;;;;;;;5.47;4.92;;;22.20;88.70;;;;;;935376;151;27365;-71
2022/06/30 02:23:56;;;;;;;5.87;5.37;;;22.10;89.10;;;;;;935793;151;27365;-70
2022/06/30 02:26:22;;;;;;;5.17;4.67;;;22.10;89.60;;;;;;936341;150;27370;-70
2022/06/30 02:28:49;;;;;;;5.90;5.42;;;22.10;90.00;;;;;;935647;152;27318;-71
2022/06/30 02:31:16;;;;;;;7.12;5.80;;;22.00;90.20;;;;;;936345;152;27357;-70
2022/06/30 02:33:42;;;;;;;5.62;5.12;;;22.00;90.40;;;;;;935822;152;27297;-70
2022/06/30 02:36:09;;;;;;;7.45;5.47;;;22.00;90.50;;;;;;936011;151;27466;-72
2022/06/30 02:38:35;;;;;;;6.30;5.65;;;21.90;90.60;;;;;;935899;151;27429;-70
2022/06/30 02:41:02;;;;;;;5.37;4.97;;;21.90;90.60;;;;;;936608;152;27675;-70
2022/06/30 02:43:28;;;;;;;6.40;5.60;;;21.90;90.80;;;;;;941500;151;28104;-69
2022/06/30 02:45:55;;;;;;;6.33;5.12;;;21.80;91.00;;;;;;944180;150;27285;-70
2022/06/30 02:48:22;;;;;;;6.25;5.70;;;21.80;91.00;;;;;;944259;151;27297;-71
2022/06/30 02:50:48;;;;;;;6.15;5.65;;;21.80;91.20;;;;;;943447;149;27435;-70
2022/06/30 02:53:15;;;;;;;6.45;5.95;;;21.80;91.40;;;;;;944076;151;27446;-70
2022/06/30 02:55:41;;;;;;;6.55;5.95;;;21.80;91.60;;;;;;943639;151;27410;-70
2022/06/30 02:58:08;;;;;;;6.95;6.25;;;21.70;91.80;;;;;;944133;149;27387;-70
2022/06/30 03:00:35;;;;;;;6.12;5.58;;;21.70;91.80;;;;;;943727;151;27309;-70
2022/06/30 03:03:01;;;;;;;6.40;5.90;;;21.70;91.80;;;;;;944144;151;27372;-70
2022/06/30 03:05:28;;;;;;;6.62;6.12;;;21.60;92.00;;;;;;943798;151;27449;-70
2022/06/30 03:07:54;;;;;;;7.20;6.30;;;21.60;92.20;;;;;;943536;151;27312;-70
2022/06/30 03:10:21;;;;;;;6.47;5.87;;;21.60;92.40;;;;;;943658;151;27425;-70
2022/06/30 03:12:47;;;;;;;6.97;6.37;;;21.50;92.50;;;;;;943701;151;27294;-70
2022/06/30 03:15:14;;;;;;;6.72;6.12;;;21.50;92.70;;;;;;942781;151;27481;-72
2022/06/30 03:17:41;;;;;;;6.37;5.83;;;21.50;93.00;;;;;;943877;151;27442;-70
2022/06/30 03:20:07;;;;;;;7.75;6.00;;;21.50;93.20;;;;;;943309;151;27270;-70
2022/06/30 03:22:34;;;;;;;7.47;6.78;;;21.50;93.40;;;;;;943668;151;27321;-70
2022/06/30 03:25:01;;;;;;;6.12;5.62;;;21.40;93.40;;;;;;944276;151;27300;-70
2022/06/30 03:27:27;;;;;;;6.37;5.87;;;21.40;93.50;;;;;;944155;151;27285;-71
2022/06/30 03:29:54;;;;;;;6.53;5.92;;;21.40;93.60;;;;;;944014;151;27343;-70
2022/06/30 03:32:20;;;;;;;6.85;5.58;;;21.40;93.70;;;;;;944244;151;27372;-71
2022/06/30 03:34:47;;;;;;;6.12;5.62;;;21.40;93.90;;;;;;944138;151;27329;-70
2022/06/30 03:37:13;;;;;;;7.20;6.15;;;21.40;94.10;;;;;;943950;151;27405;-70
2022/06/30 03:39:40;;;;;;;6.47;5.87;;;21.40;94.10;;;;;;944148;151;27297;-71
2022/06/30 03:42:07;;;;;;;6.40;5.90;;;21.30;94.10;;;;;;943893;151;27332;-71
2022/06/30 03:44:33;;;;;;;6.28;5.78;;;21.30;94.20;;;;;;943697;151;27446;-70
2022/06/30 03:47:00;;;;;;;5.97;5.58;;;21.30;94.20;;;;;;943916;151;27697;-70
2022/06/30 03:49:27;;;;;;;6.28;5.67;;;21.30;94.40;;;;;;943876;151;27324;-70
2022/06/30 03:51:53;;;;;;;6.90;6.25;;;21.30;94.60;;;;;;943572;149;27372;-70
2022/06/30 03:54:20;;;;;;;6.25;5.75;;;21.30;94.80;;;;;;943558;151;27337;-72
2022/06/30 03:56:46;;;;;;;7.05;6.47;;;21.30;94.90;;;;;;943660;151;27388;-70
2022/06/30 03:59:13;;;;;;;6.17;5.58;;;21.30;95.00;;;;;;943631;151;27325;-71
2022/06/30 04:01:39;;;;;;;6.47;5.90;;;21.30;95.20;;;;;;943631;151;27324;-70
2022/06/30 04:04:06;;;;;;;6.83;6.28;;;21.30;95.40;;;;;;943412;151;27452;-70
2022/06/30 04:06:33;;;;;;;6.80;6.20;;;21.30;95.60;;;;;;943537;151;27261;-71
2022/06/30 04:08:59;;;;;;;6.78;6.25;;;21.30;95.70;;;;;;944101;151;27449;-70
2022/06/30 04:11:26;;;;;;;7.55;6.85;;;21.40;96.00;;;;;;943279;151;27312;-71
2022/06/30 04:13:52;;;;;;;7.20;6.67;;;21.40;96.40;;;;;;943894;151;27438;-71
2022/06/30 04:16:19;;;;;;;7.67;6.97;;;21.50;96.70;;;;;;943877;151;27434;-70
2022/06/30 04:18:45;;;;;;;7.05;6.45;;;21.50;96.70;;;;;;944222;151;27432;-70
2022/06/30 04:21:15;;;;;;;6.72;6.12;;;21.60;96.80;;;;;;944040;151;27709;-71
2022/06/30 04:23:39;;;;;;;6.10;5.60;;;21.60;96.90;;;;;;943056;151;27333;-70
2022/06/30 04:26:05;;;;;;;7.25;6.62;;;21.70;96.90;;;;;;943657;151;27264;-70
2022/06/30 04:28:32;;;;;;;6.90;6.30;;;21.80;97.00;;;;;;944033;151;27316;-70
2022/06/30 04:33:43;;;;;;;6.83;6.25;;;22.00;97.10;;;;;;943841;151;27353;-74
2022/06/30 04:36:09;;;;;;;6.92;6.25;;;22.10;97.00;;;;;;944134;151;27446;-73
2022/06/30 04:38:36;;;;;;;7.70;6.83;;;22.20;97.00;;;;;;943544;151;27299;-73
2022/06/30 04:43:47;;;;;;;7.30;6.70;;;22.40;96.80;;;;;;941568;149;27338;-71
2022/06/30 04:46:14;;;;;;;6.72;6.12;;;22.50;96.80;;;;;;936802;152;27411;-73
2022/06/30 04:48:40;;;;;;;6.35;5.83;;;22.60;96.80;;;;;;936203;152;27464;-73
2022/06/30 04:51:08;;;;;;;6.45;6.00;;;22.80;96.90;;;;;;935573;150;27397;-71
2022/06/30 04:53:34;;;;;;;6.67;6.15;;;23.00;97.00;;;;;;935372;152;27415;-72
2022/06/30 04:56:00;;;;;;;7.45;6.20;;;23.20;97.40;;;;;;935447;152;27312;-72
2022/06/30 04:58:27;;;;;;;7.45;6.03;;;23.50;98.60;;;;;;936291;152;27375;-72
2022/06/30 05:00:53;;;;;;;5.22;4.83;;;23.90;99.20;;;;;;935203;151;27451;-73
2022/06/30 05:03:20;;;;;;;5.58;5.15;;;24.40;99.80;;;;;;935853;152;27440;-72
2022/06/30 05:05:47;;;;;;;5.72;5.20;;;24.90;99.50;;;;;;935489;150;27331;-71
2022/06/30 05:08:13;;;;;;;5.25;4.75;;;25.50;98.70;;;;;;935840;151;27294;-71
2022/06/30 05:10:40;;;;;;;5.50;5.00;;;26.20;97.50;;;;;;935544;151;27302;-72
2022/06/30 05:13:07;;;;;;;5.17;4.62;;;26.90;96.20;;;;;;936425;150;27435;-72
2022/06/30 05:15:33;;;;;;;5.45;5.05;;;27.60;94.40;;;;;;935396;152;27336;-72
2022/06/30 05:18:00;;;;;;;4.80;4.40;;;28.20;92.70;;;;;;935690;152;27378;-72
2022/06/30 05:20:26;;;;;;;5.90;4.75;;;28.80;91.00;;;;;;936911;152;27293;-72
2022/06/30 05:22:53;;;;;;;3.98;3.67;;;29.40;89.20;;;;;;936026;152;27350;-72
2022/06/30 05:28:04;;;;;;;5.17;3.98;;;30.60;82.70;;;;;;936267;152;27433;-72
2022/06/30 05:30:30;;;;;;;4.03;3.72;;;31.30;80.30;;;;;;936861;152;27404;-72
2022/06/30 05:32:57;;;;;;;4.35;4.00;;;31.80;76.70;;;;;;936849;152;27786;-72
2022/06/30 05:35:24;;;;;;;3.95;3.70;;;32.30;73.90;;;;;;935537;151;27389;-71
2022/06/30 05:37:50;;;;;;;5.37;3.77;;;32.80;71.40;;;;;;936825;150;27320;-72
2022/06/30 05:40:17;;;;;;;4.15;3.45;;;33.30;70.10;;;;;;935610;152;27326;-73
2022/06/30 05:42:43;;;;;;;3.87;3.37;;;33.70;69.60;;;;;;935231;152;27451;-72
2022/06/30 05:45:10;;;;;;;3.65;3.35;;;34.10;67.40;;;;;;938880;151;27385;-72
2022/06/30 05:47:50;;;;;;;3.67;3.47;;;34.60;66.00;;;;;;943738;151;27410;-72
2022/06/30 05:50:15;;;;;;;4.00;3.70;;;35.10;63.20;;;;;;943371;151;26266;-72
2022/06/30 05:52:42;;;;;;;4.10;3.72;;;35.50;63.00;;;;;;943800;149;27473;-73
2022/06/30 05:55:08;;;;;;;3.72;3.42;;;35.90;61.70;;;;;;943441;151;26280;-72
2022/06/30 05:57:35;;;;;;;4.00;3.30;;;36.30;61.00;;;;;;943674;151;26368;-72
2022/06/30 06:00:01;;;;;;;6.08;3.37;;;36.80;60.50;;;;;;942444;151;26220;-72
2022/06/30 06:02:28;;;;;;;3.77;3.33;;;37.30;59.40;;;;;;943958;149;26259;-73
2022/06/30 06:04:55;;;;;;;3.55;3.12;;;37.70;58.00;;;;;;943898;150;26233;-72
2022/06/30 06:07:21;;;;;;;3.08;2.87;;;38.10;57.20;;;;;;943582;151;27348;-74
2022/06/30 06:09:48;;;;;;;3.52;3.22;;;38.50;56.10;;;;;;943664;149;26361;-73
2022/06/30 06:12:14;;;;;;;3.40;3.10;;;38.90;55.20;;;;;;943452;149;26256;-73
2022/06/30 06:14:41;;;;;;;3.08;2.87;;;39.20;54.30;;;;;;943963;151;27332;-73
2022/06/30 06:17:08;;;;;;;3.17;2.98;;;39.50;53.50;;;;;;943708;151;26207;-73
2022/06/30 06:19:34;;;;;;;3.25;2.90;;;39.90;53.00;;;;;;943659;151;26244;-74
2022/06/30 06:22:01;;;;;;;3.30;3.00;;;40.30;52.10;;;;;;943865;151;26275;-73
2022/06/30 06:24:27;;;;;;;3.35;3.02;;;40.70;51.10;;;;;;943340;151;26233;-73
2022/06/30 06:26:54;;;;;;;3.95;3.10;;;40.90;50.20;;;;;;943459;151;26283;-74
2022/06/30 06:29:21;;;;;;;3.60;2.75;;;41.20;49.40;;;;;;943585;151;26253;-73
2022/06/30 06:31:48;;;;;;;3.10;2.83;;;41.50;48.70;;;;;;943723;151;26210;-74
2022/06/30 06:34:14;;;;;;;2.83;2.62;;;41.70;48.20;;;;;;944025;151;26308;-72
2022/06/30 06:36:40;;;;;;;3.85;3.00;;;42.00;47.60;;;;;;943789;151;26380;-73
2022/06/30 06:39:07;;;;;;;2.95;2.70;;;42.30;46.70;;;;;;942834;151;26163;-73
2022/06/30 06:41:33;;;;;;;4.47;2.75;;;42.60;46.10;;;;;;943963;150;26295;-73
2022/06/30 06:44:00;;;;;;;4.50;3.10;;;42.80;45.80;;;;;;943417;150;26365;-73
2022/06/30 06:46:27;;;;;;;4.65;2.98;;;43.00;45.30;;;;;;943772;151;26254;-73
2022/06/30 06:48:56;;;;;;;4.05;2.87;;;43.20;44.70;;;;;;944040;151;27857;-73
2022/06/30 06:51:22;;;;;;;2.77;2.58;;;43.50;44.40;;;;;;942958;149;26249;-73
2022/06/30 06:53:49;;;;;;;3.77;2.65;;;43.80;43.90;;;;;;943988;151;26248;-73
2022/06/30 06:56:15;;;;;;;3.47;3.05;;;43.90;43.20;;;;;;944013;151;26337;-75
2022/06/30 06:58:42;;;;;;;3.77;2.95;;;44.10;42.40;;;;;;944094;151;26298;-73
2022/06/30 07:01:09;;;;;;;3.70;2.70;;;44.30;42.30;;;;;;943879;151;26210;-75
2022/06/30 07:03:35;;;;;;;2.90;2.70;;;44.60;41.80;;;;;;943506;151;26187;-73
2022/06/30 07:06:02;;;;;;;3.02;2.83;;;44.80;41.40;;;;;;943365;151;26275;-72
2022/06/30 07:08:29;;;;;;;3.12;2.80;;;45.10;40.80;;;;;;943816;151;26213;-73
2022/06/30 07:10:56;;;;;;;3.85;2.90;;;45.30;40.20;;;;;;944039;151;26241;-75
2022/06/30 07:13:22;;;;;;;3.60;2.75;;;45.50;40.00;;;;;;943503;151;26260;-73
2022/06/30 07:15:48;;;;;;;6.55;2.90;;;45.70;39.40;;;;;;943766;151;26280;-73
2022/06/30 07:18:15;;;;;;;4.83;2.77;;;45.90;39.10;;;;;;943374;151;26217;-75
2022/06/30 07:20:41;;;;;;;2.80;2.60;;;46.00;38.60;;;;;;944217;149;26298;-74
2022/06/30 07:23:08;;;;;;;2.65;2.45;;;46.20;38.10;;;;;;943763;151;26221;-75
2022/06/30 07:25:35;;;;;;;3.12;2.30;;;46.30;37.60;;;;;;943974;151;26338;-76
2022/06/30 07:28:01;;;;;;;3.37;2.33;;;46.40;36.70;;;;;;943401;151;26597;-76
2022/06/30 07:30:28;;;;;;;4.17;2.65;;;46.50;36.70;;;;;;943423;151;26317;-76
2022/06/30 07:32:54;;;;;;;2.90;2.30;;;46.70;36.50;;;;;;944025;151;26172;-77
2022/06/30 07:35:21;;;;;;;2.75;2.55;;;46.80;36.20;;;;;;943393;151;26252;-77
2022/06/30 07:37:48;;;;;;;2.42;2.22;;;47.00;36.70;;;;;;943978;151;26263;-72
2022/06/30 07:40:14;;;;;;;2.30;2.10;;;47.10;35.60;;;;;;944051;151;26710;-72
2022/06/30 07:42:41;;;;;;;2.67;2.30;;;47.50;35.20;;;;;;944102;149;26221;-73
2022/06/30 07:45:07;;;;;;;2.62;2.15;;;47.60;34.50;;;;;;943129;151;26333;-73
2022/06/30 07:47:34;;;;;;;2.33;2.12;;;47.80;33.90;;;;;;935862;152;26296;-72
2022/06/30 07:50:01;;;;;;;3.00;1.87;;;47.80;33.80;;;;;;934516;152;26268;-75
2022/06/30 07:52:27;;;;;;;2.40;2.00;;;48.00;33.50;;;;;;935668;150;26323;-73
2022/06/30 07:54:54;;;;;;;2.40;2.02;;;48.10;33.00;;;;;;936481;152;26329;-73
2022/06/30 07:57:20;;;;;;;2.12;2.00;;;48.20;32.70;;;;;;936073;152;26153;-73
2022/06/30 07:59:47;;;;;;;2.22;2.02;;;48.40;32.40;;;;;;936308;150;26300;-73
2022/06/30 08:02:13;;;;;;;2.60;2.20;;;48.40;32.40;;;;;;935251;151;26245;-73
2022/06/30 08:04:40;;;;;;;4.28;2.15;;;48.60;32.20;;;;;;935276;151;26293;-73
2022/06/30 08:07:07;;;;;;;3.15;2.20;;;48.70;31.80;;;;;;934941;152;26369;-72
2022/06/30 08:09:33;;;;;;;2.58;1.90;;;48.70;31.50;;;;;;936455;152;26242;-73
2022/06/30 08:12:00;;;;;;;2.33;2.05;;;48.90;31.50;;;;;;934921;152;26694;-72
2022/06/30 08:14:26;;;;;;;2.30;2.20;;;49.10;31.40;;;;;;935570;151;26311;-73
2022/06/30 08:16:53;;;;;;;2.60;2.10;;;49.30;31.20;;;;;;936072;151;26231;-73
2022/06/30 08:19:20;;;;;;;3.27;2.50;;;49.60;31.20;;;;;;934642;152;26269;-73
2022/06/30 08:21:46;;;;;;;2.60;2.37;;;49.90;30.40;;;;;;935274;152;26379;-73
2022/06/30 08:24:13;;;;;;;2.52;2.10;;;50.10;30.00;;;;;;935753;152;26257;-73
2022/06/30 08:26:39;;;;;;;3.67;2.37;;;50.30;29.90;;;;;;936206;152;26224;-73
2022/06/30 08:29:08;;;;;;;4.15;2.20;;;50.40;29.70;;;;;;936222;150;26227;-75
2022/06/30 08:31:34;;;;;;;2.30;2.10;;;50.60;29.60;;;;;;936319;152;26271;-73
2022/06/30 08:33:59;;;;;;;3.40;2.40;;;50.80;29.60;;;;;;936212;152;26218;-73
2022/06/30 08:36:26;;;;;;;2.33;2.10;;;51.00;29.40;;;;;;935128;152;26249;-73
2022/06/30 08:38:53;;;;;;;3.58;2.52;;;51.20;29.40;;;;;;935118;152;26230;-73
2022/06/30 08:44:04;;;;;;;2.30;2.10;;;51.50;28.50;;;;;;936081;152;26234;-74
2022/06/30 08:46:30;;;;;;;2.25;2.15;;;51.70;28.40;;;;;;935792;150;26298;-74
2022/06/30 08:48:57;;;;;;;2.60;2.40;;;51.90;28.80;;;;;;936895;152;28562;-73
2022/06/30 08:51:24;;;;;;;3.80;2.40;;;51.90;28.00;;;;;;935539;150;26335;-73
2022/06/30 08:53:53;;;;;;;3.12;2.58;;;52.10;27.80;;;;;;934982;151;26260;-73
2022/06/30 08:56:20;;;;;;;2.40;2.20;;;52.20;27.80;;;;;;936150;152;26300;-73
2022/06/30 08:58:46;;;;;;;2.40;2.05;;;52.30;27.60;;;;;;934976;152;26238;-75
2022/06/30 09:01:13;;;;;;;3.25;2.08;;;52.40;27.50;;;;;;936847;152;26232;-73
2022/06/30 09:03:40;;;;;;;3.33;2.10;;;52.50;27.30;;;;;;935899;152;26249;-73
2022/06/30 09:06:06;;;;;;;2.77;2.58;;;52.60;27.10;;;;;;935650;152;26321;-73
2022/06/30 09:08:33;;;;;;;2.58;2.30;;;52.70;26.90;;;;;;935405;151;26238;-71
2022/06/30 09:10:59;;;;;;;2.22;2.02;;;52.80;26.60;;;;;;935901;151;26244;-74
2022/06/30 09:13:26;;;;;;;4.05;2.30;;;52.80;26.60;;;;;;937096;151;26300;-70
2022/06/30 09:15:53;;;;;;;2.40;2.25;;;52.90;26.40;;;;;;934422;152;26686;-70
2022/06/30 09:18:25;;;;;;;2.10;2.00;;;52.80;26.30;;;;;;936645;152;26740;-71
2022/06/30 09:20:52;;;;;;;2.62;2.42;;;52.70;26.40;;;;;;936257;150;26301;-71
2022/06/30 09:23:21;;;;;;;2.65;2.20;;;52.60;26.40;;;;;;935706;151;26303;-71
2022/06/30 09:25:49;;;;;;;2.35;2.15;;;52.60;26.10;;;;;;934153;152;26276;-72
2022/06/30 09:28:15;;;;;;;2.98;2.40;;;52.60;26.20;;;;;;936709;152;26354;-71
2022/06/30 09:30:41;;;;;;;3.30;2.30;;;52.60;26.10;;;;;;935590;152;26226;-70
2022/06/30 09:33:08;;;;;;;2.12;2.02;;;52.60;25.80;;;;;;935717;150;26269;-71
2022/06/30 09:35:36;;;;;;;3.50;2.30;;;52.60;25.90;;;;;;937851;150;26318;-71
2022/06/30 09:38:12;;;;;;;2.87;2.05;;;52.50;25.70;;;;;;936347;152;26263;-73
2022/06/30 09:40:37;;;;;;;2.45;2.25;;;52.40;25.60;;;;;;936402;152;28120;-72
2022/06/30 09:43:03;;;;;;;2.10;2.00;;;52.30;25.60;;;;;;937628;150;26344;-70
2022/06/30 09:45:39;;;;;;;2.67;2.35;;;52.30;25.70;;;;;;937211;152;26241;-71
2022/06/30 09:48:05;;;;;;;3.33;2.10;;;52.20;25.50;;;;;;947952;150;26336;-71
2022/06/30 09:50:32;;;;;;;2.30;2.12;;;52.20;25.40;;;;;;953191;148;26260;-72
2022/06/30 09:53:08;;;;;;;2.15;2.02;;;52.20;25.30;;;;;;953248;148;26394;-73
2022/06/30 09:55:37;;;;;;;2.42;2.22;;;52.00;25.10;;;;;;949014;147;26226;-71
2022/06/30 09:58:03;;;;;;;2.27;2.17;;;52.00;25.50;;;;;;952405;148;26267;-70
2022/06/30 10:00:30;;;;;;;1.82;1.72;;;52.00;25.50;;;;;;953709;148;26235;-72
2022/06/30 10:02:57;;;;;;;3.05;2.00;;;51.90;25.10;;;;;;953306;148;26369;-73
2022/06/30 10:05:23;;;;;;;2.08;1.67;;;51.90;25.00;;;;;;952908;147;26286;-73
2022/06/30 10:07:50;;;;;;;2.20;1.65;;;51.80;25.10;;;;;;952417;148;26342;-71
2022/06/30 10:10:16;;;;;;;1.70;1.60;;;51.60;24.70;;;;;;952741;150;26175;-70
2022/06/30 10:12:46;;;;;;;3.00;2.20;;;51.50;24.50;;;;;;953127;147;26343;-72
2022/06/30 10:15:12;;;;;;;1.95;1.85;;;51.20;24.30;;;;;;953545;148;26245;-73
2022/06/30 10:17:48;;;;;;;2.10;1.90;;;50.80;24.30;;;;;;953288;150;26623;-72
2022/06/30 10:20:15;;;;;;;2.02;1.90;;;50.50;24.00;;;;;;953022;150;26355;-71
2022/06/30 10:22:41;;;;;;;1.70;1.60;;;49.90;23.90;;;;;;953136;150;26237;-70
2022/06/30 10:25:08;;;;;;;3.10;1.90;;;49.40;24.10;;;;;;953237;150;26263;-71
2022/06/30 10:27:34;;;;;;;2.37;2.17;;;48.90;24.20;;;;;;953536;148;26305;-71
2022/06/30 10:30:05;;;;;;;2.22;2.02;;;48.40;24.50;;;;;;953685;147;26290;-73
2022/06/30 10:32:58;;;;;;;2.35;2.15;;;47.90;24.60;;;;;;953303;148;26976;-70
2022/06/30 10:35:37;;;;;;;4.65;2.45;;;47.50;24.80;;;;;;953411;150;26290;-70
2022/06/30 10:38:21;;;;;;;3.72;2.30;;;46.90;25.40;;;;;;953018;149;26219;-71
2022/06/30 10:41:12;;;;;;;3.62;2.45;;;46.40;25.30;;;;;;953221;150;26635;-71
2022/06/30 10:43:35;;;;;;;4.53;2.67;;;46.00;25.40;;;;;;952243;150;26298;-71
2022/06/30 10:46:02;;;;;;;2.70;2.50;;;45.50;26.10;;;;;;953311;148;26282;-70
2022/06/30 10:48:29;;;;;;;2.55;2.35;;;45.10;25.90;;;;;;942913;148;26305;-70
2022/06/30 10:50:56;;;;;;;10.03;2.90;;;44.80;26.10;;;;;;931189;150;26292;-71
2022/06/30 10:53:34;;;;;;;4.28;2.80;;;44.40;26.20;;;;;;936757;152;26323;-70
2022/06/30 10:56:00;;;;;;;2.70;2.40;;;43.90;26.50;;;;;;936134;152;26325;-70
2022/06/30 10:58:27;;;;;;;4.00;2.60;;;43.50;26.80;;;;;;935882;150;26277;-72
2022/06/30 11:00:58;;;;;;;2.55;2.27;;;43.10;27.10;;;;;;936369;151;26312;-70
2022/06/30 11:03:32;;;;;;;2.42;2.30;;;42.70;27.40;;;;;;935568;152;26318;-70
2022/06/30 11:05:58;;;;;;;3.05;2.77;;;42.30;27.80;;;;;;935075;151;26346;-71
2022/06/30 11:08:46;;;;;;;2.92;2.70;;;42.00;28.10;;;;;;935783;152;26208;-70
2022/06/30 11:11:22;;;;;;;4.05;3.20;;;41.80;28.30;;;;;;936251;151;26265;-72
2022/06/30 11:14:01;;;;;;;5.12;2.95;;;41.60;28.40;;;;;;935990;152;27330;-71
2022/06/30 11:16:28;;;;;;;2.70;2.52;;;41.50;28.60;;;;;;936354;152;26369;-69
2022/06/30 11:18:54;;;;;;;3.95;2.90;;;41.30;29.40;;;;;;934930;152;26912;-70
2022/06/30 11:21:21;;;;;;;2.83;2.62;;;41.00;29.00;;;;;;936853;151;26204;-70
2022/06/30 11:23:47;;;;;;;2.45;2.25;;;40.90;29.10;;;;;;937083;151;26319;-70
2022/06/30 11:28:59;;;;;;;3.42;2.42;;;40.50;29.30;;;;;;935686;152;26503;-72
2022/06/30 11:31:25;;;;;;;2.55;2.40;;;40.30;29.60;;;;;;936582;152;26779;-70
2022/06/30 11:33:57;;;;;;;3.05;2.50;;;40.20;29.70;;;;;;936202;152;26567;-70
2022/06/30 11:36:24;;;;;;;2.65;2.42;;;40.20;29.80;;;;;;935673;151;27400;-70
2022/06/30 11:38:54;;;;;;;2.65;2.22;;;40.10;29.80;;;;;;936201;151;26288;-71
2022/06/30 11:44:07;;;;;;;4.12;2.67;;;39.90;29.90;;;;;;936500;152;26348;-70
2022/06/30 11:46:34;;;;;;;2.67;2.47;;;39.90;30.00;;;;;;936237;151;27378;-70
2022/06/30 11:49:00;;;;;;;2.67;2.47;;;39.80;30.30;;;;;;934829;151;27376;-71
2022/06/30 11:51:27;;;;;;;2.80;2.55;;;39.70;30.30;;;;;;935661;150;26307;-70
2022/06/30 11:53:53;;;;;;;2.52;2.33;;;39.70;30.30;;;;;;935841;151;26756;-70
2022/06/30 11:56:20;;;;;;;2.37;2.27;;;39.60;30.30;;;;;;936115;152;26241;-70
2022/06/30 11:58:47;;;;;;;2.33;2.15;;;39.50;30.30;;;;;;936747;151;27303;-70
2022/06/30 12:01:13;;;;;;;2.58;2.37;;;39.50;30.20;;;;;;935324;151;27283;-71
2022/06/30 12:03:43;;;;;;;3.72;2.47;;;39.40;30.20;;;;;;936924;152;26256;-72
2022/06/30 12:06:06;;;;;;;2.40;2.05;;;39.20;30.00;;;;;;935367;152;27353;-70
2022/06/30 12:08:33;;;;;;;2.47;2.27;;;39.20;30.40;;;;;;935396;151;26495;-69
2022/06/30 12:10:59;;;;;;;2.70;2.40;;;39.10;30.40;;;;;;935787;151;27313;-69
2022/06/30 12:13:26;;;;;;;2.40;2.20;;;39.10;30.50;;;;;;937234;151;27353;-70
2022/06/30 12:15:55;;;;;;;1.98;1.87;;;39.10;30.60;;;;;;936633;152;27296;-71
2022/06/30 12:18:19;;;;;;;2.40;2.30;;;39.10;30.40;;;;;;935586;151;27368;-69
2022/06/30 12:20:46;;;;;;;3.00;2.30;;;39.10;30.60;;;;;;935549;152;27348;-70
2022/06/30 12:23:12;;;;;;;3.65;2.70;;;39.00;30.50;;;;;;935622;152;27252;-70
2022/06/30 12:25:39;;;;;;;2.70;2.50;;;39.00;30.50;;;;;;936929;152;27336;-69
2022/06/30 12:28:06;;;;;;;2.40;2.22;;;38.90;30.50;;;;;;935449;152;27420;-69
2022/06/30 12:30:35;;;;;;;4.08;2.30;;;38.70;30.40;;;;;;937067;151;27313;-70
2022/06/30 12:33:02;;;;;;;3.40;2.22;;;38.40;30.30;;;;;;935747;152;27334;-69
2022/06/30 12:35:30;;;;;;;2.50;2.30;;;38.10;30.30;;;;;;935037;152;27267;-72
2022/06/30 12:37:56;;;;;;;2.37;2.25;;;37.80;30.40;;;;;;936044;152;27274;-74
2022/06/30 12:40:21;;;;;;;2.80;1.95;;;37.50;30.70;;;;;;936092;151;27290;-73
2022/06/30 12:42:48;;;;;;;24.67;3.00;;;37.20;30.70;;;;;;936144;151;27438;-72
2022/06/30 12:45:52;;;;;;;2.20;2.10;;;36.90;30.80;;;;;;937364;152;27371;-73
2022/06/30 12:48:15;;;;;;;1.92;1.82;;;36.70;31.10;;;;;;936278;152;28051;-72
2022/06/30 12:50:41;;;;;;;1.90;1.80;;;36.50;31.60;;;;;;945150;148;27393;-72
2022/06/30 12:53:17;;;;;;;3.17;2.20;;;36.40;31.80;;;;;;948840;151;27370;-72
2022/06/30 12:56:08;;;;;;;2.00;1.90;;;36.40;32.10;;;;;;948820;151;27274;-72
2022/06/30 12:59:05;;;;;;;2.92;2.25;;;36.30;31.90;;;;;;948506;150;27355;-72
2022/06/30 13:01:32;;;;;;;1.80;1.70;;;36.30;32.00;;;;;;948373;151;27310;-72
2022/06/30 13:03:58;;;;;;;2.15;1.92;;;36.30;31.90;;;;;;947652;151;27355;-74
2022/06/30 13:06:25;;;;;;;1.85;1.75;;;36.20;32.00;;;;;;948392;150;27751;-72
2022/06/30 13:08:51;;;;;;;1.87;1.77;;;36.20;32.70;;;;;;948405;151;27438;-72
2022/06/30 13:11:18;;;;;;;2.00;1.87;;;36.30;32.00;;;;;;948364;149;27406;-72
2022/06/30 13:13:48;;;;;;;2.20;2.00;;;36.40;32.10;;;;;;948167;151;27401;-72